Roopville, Georgia
Current Conditions -  °F | °C
As of 8:55 AM on Monday 22 Dec 2014 (Local Time) from KCTJ Reporting Station
Haze Haze  
Wind Chill: 41°   Ceiling: 200
Heat Index: 45°   Visibility: 1.2mi
Dew Point: 45°   Wind: 7mph
Humidity: 100%   Direction: 100°E
Pressure: 30.02"   Gusts: NA
Location:  33.46°N, 85.13°W
Report Text: KCTJ 221355Z AUTO 10006KT 1 1/4SM BR OVC002 07/07 A3002 RMK AO2
Loading
Personal Weather Stations






























Interactive Weather Map New forecast layout! Learn more

10-Day Weather Forecast

Advertisements
Track Severe Weather on mobile